createdAt,value
2018-08-23T00:00:49.787Z,20.90
2018-08-23T00:03:24.004Z,20.90
2018-08-23T00:05:53.952Z,20.80
2018-08-23T00:08:23.195Z,20.80
2018-08-23T00:10:52.746Z,20.80
2018-08-23T00:13:22.024Z,20.80
2018-08-23T00:15:51.564Z,20.80
2018-08-23T00:18:20.415Z,20.70
2018-08-23T00:20:49.259Z,20.80
2018-08-23T00:23:18.044Z,20.70
2018-08-23T00:25:46.846Z,20.60
2018-08-23T00:28:16.016Z,20.60
2018-08-23T00:30:45.955Z,20.60
2018-08-23T00:33:14.727Z,20.60
2018-08-23T00:35:43.512Z,20.50
2018-08-23T00:38:12.450Z,20.50
2018-08-23T00:40:43.515Z,20.50
2018-08-23T00:46:15.882Z,20.50
2018-08-23T00:48:44.698Z,20.60
2018-08-23T00:51:13.434Z,20.60
2018-08-23T00:53:47.121Z,20.60
2018-08-23T00:56:17.514Z,20.60
2018-08-23T00:58:51.611Z,20.60
2018-08-23T01:01:20.400Z,20.60
2018-08-23T01:03:49.174Z,20.60
2018-08-23T01:06:18.392Z,20.70
2018-08-23T01:08:47.170Z,20.70
2018-08-23T01:11:15.936Z,20.80
2018-08-23T01:13:44.835Z,20.80
2018-08-23T01:16:14.183Z,20.70
2018-08-23T01:18:43.212Z,20.70
2018-08-23T01:21:12.094Z,20.60
2018-08-23T01:23:42.734Z,20.60
2018-08-23T01:26:11.495Z,20.60
2018-08-23T01:28:40.302Z,20.60
2018-08-23T01:31:22.556Z,20.60
2018-08-23T01:33:53.982Z,20.60
2018-08-23T01:36:28.128Z,20.60
2018-08-23T01:38:56.913Z,20.60
2018-08-23T01:41:25.679Z,20.60
2018-08-23T01:43:54.467Z,20.60
2018-08-23T01:46:27.984Z,20.60
2018-08-23T01:48:56.760Z,20.60
2018-08-23T01:51:25.538Z,20.60
2018-08-23T01:53:54.322Z,20.60
2018-08-23T01:56:23.100Z,20.60
2018-08-23T01:58:51.883Z,20.60
2018-08-23T02:01:22.088Z,20.60
2018-08-23T02:03:50.883Z,20.70
2018-08-23T02:06:19.676Z,20.60
2018-08-23T02:08:48.432Z,20.50
2018-08-23T02:11:17.220Z,20.60
2018-08-23T02:13:48.992Z,20.60
2018-08-23T02:16:17.783Z,20.60
2018-08-23T02:18:46.570Z,20.60
2018-08-23T02:21:15.357Z,20.60
2018-08-23T02:23:48.923Z,20.50
2018-08-23T02:26:17.707Z,20.60
2018-08-23T02:28:48.035Z,20.50
2018-08-23T02:31:16.854Z,20.50
2018-08-23T02:33:45.635Z,20.50
2018-08-23T02:36:18.080Z,20.50
2018-08-23T02:38:51.679Z,20.40
2018-08-23T02:41:20.459Z,20.50
2018-08-23T02:43:49.575Z,20.40
2018-08-23T02:46:18.347Z,20.40
2018-08-23T02:48:47.119Z,20.30
2018-08-23T02:51:15.931Z,20.30
2018-08-23T02:53:47.887Z,20.20
2018-08-23T02:56:17.902Z,20.20
2018-08-23T02:59:00.135Z,20.10
2018-08-23T03:01:30.610Z,20.10
2018-08-23T03:04:15.506Z,20.20
2018-08-23T03:06:50.747Z,20.10
2018-08-23T03:09:23.267Z,20.10
2018-08-23T03:11:53.246Z,20.20
2018-08-23T03:14:22.943Z,20.10
2018-08-23T03:17:37.747Z,20.10
2018-08-23T03:20:19.099Z,20.10
2018-08-23T03:22:49.099Z,20.10
2018-08-23T03:25:21.911Z,20.10
2018-08-23T03:27:52.025Z,20.00
2018-08-23T03:30:21.306Z,19.90
2018-08-23T03:32:50.402Z,19.90
2018-08-23T03:35:19.237Z,19.80
2018-08-23T03:37:47.983Z,19.70
2018-08-23T03:40:17.419Z,19.70
2018-08-23T03:42:46.202Z,19.70
2018-08-23T03:45:20.376Z,19.60
2018-08-23T03:47:53.681Z,19.60
2018-08-23T03:50:22.498Z,19.40
2018-08-23T03:52:54.965Z,19.40
2018-08-23T03:55:25.139Z,19.30
2018-08-23T03:57:59.303Z,19.30
2018-08-23T04:00:33.542Z,19.30
2018-08-23T04:03:03.807Z,19.30
2018-08-23T04:05:32.582Z,19.20
2018-08-23T04:08:01.347Z,19.10
2018-08-23T04:10:30.145Z,19.20
2018-08-23T04:12:58.948Z,19.20
2018-08-23T04:15:30.008Z,19.10
2018-08-23T04:18:02.946Z,19.10
2018-08-23T04:20:31.812Z,19.10
2018-08-23T04:23:00.676Z,19.10
2018-08-23T04:25:29.315Z,19.10
2018-08-23T04:27:58.074Z,19.10
2018-08-23T04:30:26.829Z,19.10
2018-08-23T04:32:55.569Z,19.20
2018-08-23T04:35:26.339Z,19.10
2018-08-23T04:37:55.186Z,19.00
2018-08-23T04:40:24.043Z,19.00
2018-08-23T04:42:53.170Z,19.00
2018-08-23T04:45:24.224Z,19.00
2018-08-23T04:47:58.523Z,19.10
2018-08-23T04:50:27.485Z,19.10
2018-08-23T04:52:56.250Z,19.20
2018-08-23T04:55:25.936Z,19.20
2018-08-23T04:57:55.228Z,19.20
2018-08-23T05:00:24.051Z,19.30
2018-08-23T05:02:52.812Z,19.20
2018-08-23T05:05:21.644Z,19.20
2018-08-23T05:07:50.407Z,19.30
2018-08-23T05:10:19.260Z,19.30
2018-08-23T05:12:48.179Z,19.40
2018-08-23T05:15:17.183Z,19.40
2018-08-23T05:17:45.944Z,19.50
2018-08-23T05:20:14.708Z,19.60
2018-08-23T05:22:51.626Z,19.60
2018-08-23T05:25:22.412Z,19.60
2018-08-23T05:28:14.918Z,19.70
2018-08-23T05:30:44.907Z,19.80
2018-08-23T05:33:14.670Z,19.90
2018-08-23T05:35:43.523Z,20.00
2018-08-23T05:38:12.864Z,20.00
2018-08-23T05:40:48.678Z,20.10
2018-08-23T05:43:17.432Z,20.10
2018-08-23T05:45:51.544Z,20.20
2018-08-23T05:48:31.951Z,20.30
2018-08-23T05:51:03.707Z,20.40
2018-08-23T05:53:32.496Z,20.50
2018-08-23T05:56:01.741Z,20.60
2018-08-23T05:58:32.565Z,20.60
2018-08-23T06:01:01.737Z,20.70
2018-08-23T06:03:30.810Z,20.80
2018-08-23T06:05:59.583Z,20.80
2018-08-23T06:08:28.395Z,20.80
2018-08-23T06:11:08.699Z,20.90
2018-08-23T06:13:37.562Z,21.00
2018-08-23T06:16:06.494Z,21.10
2018-08-23T06:18:35.292Z,21.10
2018-08-23T06:21:04.064Z,21.20
2018-08-23T06:24:02.512Z,21.20
2018-08-23T06:26:41.470Z,21.30
2018-08-23T06:29:12.576Z,21.30
2018-08-23T06:31:51.512Z,21.40
2018-08-23T06:34:20.304Z,21.40
2018-08-23T06:36:49.175Z,21.50
2018-08-23T06:39:17.976Z,21.50
2018-08-23T06:41:46.738Z,21.60
2018-08-23T06:44:15.518Z,21.60
2018-08-23T06:46:44.403Z,21.70
2018-08-23T06:49:13.179Z,21.80
2018-08-23T06:51:41.970Z,21.80
2018-08-23T06:54:10.759Z,21.90
2018-08-23T06:56:39.560Z,21.90
2018-08-23T06:59:09.276Z,22.00
2018-08-23T07:01:43.417Z,22.10
2018-08-23T07:04:13.539Z,22.20
2018-08-23T07:06:42.437Z,22.20
2018-08-23T07:09:18.265Z,22.30
2018-08-23T07:11:47.109Z,22.40
2018-08-23T07:14:17.875Z,22.50
2018-08-23T07:16:48.055Z,22.60
2018-08-23T07:19:24.579Z,22.60
2018-08-23T07:21:54.475Z,22.80
2018-08-23T07:24:43.092Z,22.90
2018-08-23T07:27:13.066Z,23.00
2018-08-23T07:29:44.659Z,23.10
2018-08-23T07:32:17.611Z,23.10
2018-08-23T07:35:12.898Z,23.20
2018-08-23T07:37:44.082Z,23.30
2018-08-23T07:40:14.292Z,23.40
2018-08-23T07:42:44.108Z,23.40
2018-08-23T07:45:13.199Z,23.50
2018-08-23T07:47:43.319Z,23.50
2018-08-23T07:50:14.184Z,23.50
2018-08-23T07:52:44.369Z,23.60
2018-08-23T07:55:13.130Z,23.50
2018-08-23T07:57:42.441Z,23.50
2018-08-23T08:00:38.053Z,23.50
2018-08-23T08:03:07.870Z,23.60
2018-08-23T08:05:40.612Z,23.60
2018-08-23T08:08:13.252Z,23.60
2018-08-23T08:10:46.656Z,23.50
2018-08-23T08:13:15.743Z,23.60
2018-08-23T08:16:02.812Z,23.60
2018-08-23T08:18:31.618Z,23.60
2018-08-23T08:21:02.474Z,23.70
2018-08-23T08:23:32.064Z,23.60
2018-08-23T08:26:00.851Z,23.60
2018-08-23T08:28:29.739Z,23.60
2018-08-23T08:31:01.309Z,23.60
2018-08-23T08:33:34.916Z,23.60
2018-08-23T08:36:04.541Z,23.50
2018-08-23T08:38:33.814Z,23.50
2018-08-23T08:41:02.626Z,23.50
2018-08-23T08:43:31.427Z,23.50
2018-08-23T08:46:00.576Z,23.50
2018-08-23T08:48:32.150Z,23.50
2018-08-23T08:51:27.375Z,23.50
2018-08-23T08:53:57.145Z,23.50
2018-08-23T08:56:30.816Z,23.50
2018-08-23T08:58:59.592Z,23.60
2018-08-23T09:01:28.400Z,23.60
2018-08-23T09:03:57.272Z,23.60
2018-08-23T09:06:31.500Z,23.60
2018-08-23T09:09:04.739Z,23.60
2018-08-23T09:11:33.533Z,23.60
2018-08-23T09:14:02.323Z,23.70
2018-08-23T09:16:31.106Z,23.60
2018-08-23T09:19:04.307Z,23.60
2018-08-23T09:21:33.515Z,23.60
2018-08-23T09:24:36.368Z,23.60
2018-08-23T09:27:14.911Z,23.70
2018-08-23T09:29:43.700Z,23.70
2018-08-23T09:32:18.698Z,23.70
2018-08-23T09:34:47.696Z,23.70
2018-08-23T09:37:16.560Z,23.70
2018-08-23T09:39:46.408Z,23.70
2018-08-23T09:42:15.219Z,23.70
2018-08-23T09:44:58.531Z,23.60
2018-08-23T09:47:27.567Z,23.60
2018-08-23T09:49:57.061Z,23.70
2018-08-23T09:52:28.172Z,23.70
2018-08-23T09:54:56.960Z,23.70
2018-08-23T09:57:26.268Z,23.80
2018-08-23T09:59:56.286Z,23.70
2018-08-23T10:02:30.606Z,23.70
2018-08-23T10:05:05.950Z,23.80
2018-08-23T10:07:40.393Z,23.80
2018-08-23T10:10:14.845Z,24.00
2018-08-23T10:12:49.178Z,24.30
2018-08-23T10:16:23.943Z,24.60
2018-08-23T10:18:55.120Z,25.20
2018-08-23T10:21:29.299Z,25.70
2018-08-23T10:24:12.860Z,25.90
2018-08-23T10:26:41.762Z,26.10
2018-08-23T10:29:10.445Z,26.40
2018-08-23T10:31:39.229Z,26.50
2018-08-23T10:34:08.020Z,26.60
2018-08-23T10:36:36.808Z,26.80
2018-08-23T10:39:08.511Z,27.00
2018-08-23T10:41:37.433Z,27.30
2018-08-23T10:44:06.445Z,27.50
2018-08-23T10:46:40.729Z,27.60
2018-08-23T10:49:09.543Z,27.80
2018-08-23T10:51:38.439Z,27.80
2018-08-23T10:54:07.227Z,27.90
2018-08-23T10:56:36.020Z,28.10
2018-08-23T10:59:04.863Z,28.10
2018-08-23T11:01:33.628Z,28.30
2018-08-23T11:04:09.357Z,28.40
2018-08-23T11:06:42.384Z,28.40
2018-08-23T11:09:16.648Z,28.40
2018-08-23T11:11:45.447Z,28.40
2018-08-23T11:14:19.595Z,28.50
2018-08-23T11:16:53.948Z,28.50
2018-08-23T11:19:28.237Z,28.60
2018-08-23T11:21:57.043Z,28.60
2018-08-23T11:24:25.845Z,28.60
2018-08-23T11:26:54.708Z,28.80
2018-08-23T11:29:23.533Z,28.90
2018-08-23T11:31:52.291Z,29.00
2018-08-23T11:34:21.059Z,28.90
2018-08-23T11:36:49.876Z,29.00
2018-08-23T11:39:18.660Z,29.20
2018-08-23T11:41:47.451Z,29.40
2018-08-23T11:44:16.268Z,29.30
2018-08-23T11:46:45.061Z,29.40
2018-08-23T11:49:13.841Z,29.60
2018-08-23T11:51:42.632Z,29.70
2018-08-23T11:54:11.428Z,29.70
2018-08-23T11:56:40.218Z,29.90
2018-08-23T11:59:09.070Z,30.10
2018-08-23T12:01:37.803Z,30.20
2018-08-23T12:04:06.631Z,30.30
2018-08-23T12:06:35.507Z,30.20
2018-08-23T12:09:06.453Z,30.50
2018-08-23T12:11:35.240Z,30.60
2018-08-23T12:14:04.049Z,30.50
2018-08-23T12:16:32.837Z,30.80
2018-08-23T12:19:01.627Z,31.00
2018-08-23T12:21:30.416Z,30.70
2018-08-23T12:23:59.196Z,30.60
2018-08-23T12:26:27.987Z,30.40
2018-08-23T12:29:02.320Z,30.10
2018-08-23T12:31:31.165Z,29.70
2018-08-23T12:34:02.756Z,29.40
2018-08-23T12:36:37.007Z,29.20
2018-08-23T12:39:13.548Z,28.80
2018-08-23T12:41:48.219Z,28.80
2018-08-23T12:44:17.778Z,28.50
2018-08-23T12:46:46.585Z,28.50
2018-08-23T12:49:15.463Z,28.30
2018-08-23T12:51:44.228Z,28.10
2018-08-23T12:54:13.010Z,27.90
2018-08-23T12:56:41.853Z,27.60
2018-08-23T12:59:10.659Z,27.50
2018-08-23T13:01:39.474Z,27.20
2018-08-23T13:04:08.343Z,26.90
2018-08-23T13:06:37.507Z,26.70
2018-08-23T13:09:22.264Z,26.50
2018-08-23T13:11:51.211Z,26.40
2018-08-23T13:17:13.515Z,25.90
2018-08-23T13:19:53.876Z,25.90
2018-08-23T13:22:28.201Z,25.80
2018-08-23T13:25:12.808Z,25.50
2018-08-23T13:27:41.642Z,25.40
2018-08-23T13:30:10.461Z,25.00
2018-08-23T13:32:39.229Z,24.60
2018-08-23T13:35:08.051Z,24.10
2018-08-23T13:37:36.846Z,23.70
2018-08-23T13:40:05.641Z,23.60
2018-08-23T13:42:34.574Z,23.50
2018-08-23T13:45:03.390Z,23.40
2018-08-23T13:47:32.220Z,23.30
2018-08-23T13:50:01.020Z,23.30
2018-08-23T13:52:29.833Z,23.10
2018-08-23T13:54:58.739Z,23.00
2018-08-23T13:57:27.571Z,22.90
2018-08-23T13:59:56.537Z,22.80
2018-08-23T14:02:25.966Z,22.80
2018-08-23T14:04:55.430Z,22.70
2018-08-23T14:07:24.881Z,22.40
2018-08-23T14:09:54.304Z,22.40
2018-08-23T14:12:25.116Z,22.30
2018-08-23T14:14:57.733Z,22.30
2018-08-23T14:17:27.944Z,22.20
2018-08-23T14:19:57.858Z,22.10
2018-08-23T14:22:27.230Z,22.00
2018-08-23T14:24:59.315Z,22.00
2018-08-23T14:27:28.839Z,22.00
2018-08-23T14:29:58.279Z,22.00
2018-08-23T14:32:27.663Z,22.00
2018-08-23T14:34:57.229Z,21.90
2018-08-23T14:37:26.716Z,21.80
2018-08-23T14:39:56.234Z,21.70
2018-08-23T14:42:25.621Z,21.70
2018-08-23T14:44:55.666Z,21.60
2018-08-23T14:47:30.258Z,21.60
2018-08-23T14:49:59.714Z,21.40
2018-08-23T14:52:29.174Z,21.30
2018-08-23T14:54:58.754Z,21.30
2018-08-23T14:57:32.166Z,21.20
2018-08-23T15:00:02.358Z,21.30
2018-08-23T15:02:31.966Z,21.30
2018-08-23T15:05:01.372Z,21.20
2018-08-23T15:07:31.703Z,21.30
2018-08-23T15:10:01.215Z,21.30
2018-08-23T15:12:31.267Z,21.30
2018-08-23T15:15:00.855Z,21.30
2018-08-23T15:17:33.271Z,21.20
2018-08-23T15:20:02.064Z,21.30
2018-08-23T15:22:30.855Z,21.30
2018-08-23T15:24:59.660Z,21.30
2018-08-23T15:27:32.587Z,21.30
2018-08-23T15:30:02.431Z,21.30
2018-08-23T15:32:31.222Z,21.40
2018-08-23T15:35:00.070Z,21.30
2018-08-23T15:37:28.906Z,21.40
2018-08-23T15:39:57.691Z,21.40
2018-08-23T15:42:26.492Z,21.40
2018-08-23T15:44:55.327Z,21.40
2018-08-23T15:47:24.334Z,21.40
2018-08-23T15:49:53.115Z,21.40
2018-08-23T15:52:21.959Z,21.50
2018-08-23T15:57:25.808Z,21.60
2018-08-23T15:59:54.604Z,21.70
2018-08-23T16:02:23.461Z,21.80
2018-08-23T16:04:52.320Z,21.90
2018-08-23T16:07:21.228Z,21.90
2018-08-23T16:09:50.003Z,21.90
2018-08-23T16:12:18.905Z,22.00
2018-08-23T16:14:47.680Z,22.00
2018-08-23T16:17:21.855Z,22.10
2018-08-23T16:19:56.140Z,22.10
2018-08-23T16:22:25.019Z,22.10
2018-08-23T16:24:53.859Z,22.10
2018-08-23T16:27:22.605Z,22.10
2018-08-23T16:29:52.533Z,22.10
2018-08-23T16:32:26.874Z,22.20
2018-08-23T16:34:55.979Z,22.10
2018-08-23T16:37:24.808Z,22.20
2018-08-23T16:39:53.572Z,22.20
2018-08-23T16:42:22.368Z,22.30
2018-08-23T16:44:51.158Z,22.40
2018-08-23T16:47:19.938Z,22.40
2018-08-23T16:49:48.755Z,22.40
2018-08-23T16:52:17.565Z,22.40
2018-08-23T16:54:46.548Z,22.40
2018-08-23T16:57:15.375Z,22.40
2018-08-23T16:59:44.216Z,22.50
2018-08-23T17:02:13.003Z,22.50
2018-08-23T17:04:43.513Z,22.40
2018-08-23T17:07:13.096Z,22.60
2018-08-23T17:09:41.922Z,22.70
2018-08-23T17:12:10.797Z,22.80
2018-08-23T17:14:39.578Z,22.80
2018-08-23T17:17:13.868Z,22.90
2018-08-23T17:19:42.655Z,22.90
2018-08-23T17:22:11.490Z,23.00
2018-08-23T17:24:40.506Z,23.10
2018-08-23T17:27:09.208Z,23.10
2018-08-23T17:29:38.017Z,23.10
2018-08-23T17:32:06.848Z,23.10
2018-08-23T17:34:35.656Z,23.10
2018-08-23T17:37:04.651Z,23.00
2018-08-23T17:39:33.459Z,23.00
2018-08-23T17:42:03.594Z,22.90
2018-08-23T17:44:33.054Z,22.80
2018-08-23T17:47:02.701Z,22.80
2018-08-23T17:49:33.226Z,22.80
2018-08-23T17:52:03.284Z,22.70
2018-08-23T17:54:32.161Z,22.70
2018-08-23T17:57:00.976Z,22.60
2018-08-23T17:59:29.819Z,22.50
2018-08-23T18:01:59.788Z,22.40
2018-08-23T18:04:28.693Z,22.30
2018-08-23T18:06:57.541Z,22.30
2018-08-23T18:09:26.572Z,22.30
2018-08-23T18:11:55.883Z,22.20
2018-08-23T18:14:26.388Z,22.20
2018-08-23T18:17:01.209Z,22.10
2018-08-23T18:19:30.508Z,21.90
2018-08-23T18:22:00.417Z,21.90
2018-08-23T18:24:30.430Z,21.80
2018-08-23T18:27:00.099Z,21.80
2018-08-23T18:29:29.309Z,21.70
2018-08-23T18:31:58.434Z,21.70
2018-08-23T18:34:28.946Z,21.70
2018-08-23T18:37:03.538Z,21.60
2018-08-23T18:39:33.600Z,21.60
2018-08-23T18:42:47.313Z,21.60
2018-08-23T18:45:17.118Z,21.60
2018-08-23T18:47:46.593Z,21.60
2018-08-23T18:50:16.264Z,21.60
2018-08-23T18:52:45.864Z,21.60
2018-08-23T18:55:15.110Z,21.60
2018-08-23T18:57:44.104Z,21.60
2018-08-23T19:00:13.451Z,21.60
2018-08-23T19:02:42.451Z,21.60
2018-08-23T19:05:11.413Z,21.60
2018-08-23T19:07:40.283Z,21.50
2018-08-23T19:10:09.949Z,21.50
2018-08-23T19:12:38.911Z,21.40
2018-08-23T19:15:11.012Z,21.30
2018-08-23T19:17:42.941Z,21.30
2018-08-23T19:20:42.023Z,21.20
2018-08-23T19:23:11.046Z,21.20
2018-08-23T19:25:40.989Z,21.20
2018-08-23T19:28:09.890Z,21.10
2018-08-23T19:30:38.697Z,21.00
2018-08-23T19:33:07.568Z,21.00
2018-08-23T19:35:36.998Z,21.00
2018-08-23T19:38:07.379Z,20.90
2018-08-23T19:40:36.892Z,21.00
2018-08-23T19:43:06.224Z,20.90
2018-08-23T19:45:40.322Z,20.90
2018-08-23T19:48:10.147Z,20.90
2018-08-23T19:50:40.707Z,21.00
2018-08-23T19:53:10.324Z,21.00
2018-08-23T19:55:39.560Z,21.10
2018-08-23T19:58:08.716Z,21.10
2018-08-23T20:00:41.127Z,21.20
2018-08-23T20:03:10.787Z,21.10
2018-08-23T20:05:39.936Z,21.10
2018-08-23T20:08:09.084Z,21.10
2018-08-23T20:10:38.339Z,21.10
2018-08-23T20:13:07.360Z,21.10
2018-08-23T20:15:36.200Z,21.10
2018-08-23T20:18:05.164Z,21.10
2018-08-23T20:20:34.013Z,21.00
2018-08-23T20:23:02.936Z,21.00
2018-08-23T20:25:31.815Z,21.00
2018-08-23T20:28:00.716Z,21.00
2018-08-23T20:30:29.819Z,21.00
2018-08-23T20:32:58.797Z,21.00
2018-08-23T20:35:27.896Z,21.00
2018-08-23T20:37:57.749Z,21.00
2018-08-23T20:40:26.770Z,21.00
2018-08-23T20:42:57.211Z,21.00
2018-08-23T20:45:26.262Z,21.00
2018-08-23T20:47:57.946Z,21.00
2018-08-23T20:50:26.775Z,21.00
2018-08-23T20:52:55.568Z,21.00
2018-08-23T20:55:25.208Z,21.10
2018-08-23T20:57:54.056Z,21.10
2018-08-23T21:00:22.907Z,21.10
2018-08-23T21:02:51.739Z,21.10
2018-08-23T21:05:21.271Z,21.20
2018-08-23T21:07:50.243Z,21.20
2018-08-23T21:10:19.642Z,21.20
2018-08-23T21:12:49.820Z,21.20
2018-08-23T21:15:19.039Z,21.10
2018-08-23T21:17:48.021Z,21.00
2018-08-23T21:20:16.935Z,21.00
2018-08-23T21:22:45.759Z,21.00
2018-08-23T21:25:14.565Z,21.00
2018-08-23T21:27:43.464Z,21.00
2018-08-23T21:30:13.632Z,21.00
2018-08-23T21:32:43.148Z,20.90
2018-08-23T21:35:12.235Z,20.90
2018-08-23T21:37:41.085Z,20.90
2018-08-23T21:40:10.001Z,20.90
2018-08-23T21:42:39.147Z,20.90
2018-08-23T21:45:10.250Z,20.80
2018-08-23T21:47:39.277Z,20.80
2018-08-23T21:50:09.059Z,20.70
2018-08-23T21:52:38.540Z,20.70
2018-08-23T21:55:08.303Z,20.80
2018-08-23T21:57:37.116Z,20.70
2018-08-23T22:00:06.621Z,20.70
2018-08-23T22:02:35.519Z,20.70
2018-08-23T22:05:04.424Z,20.70
2018-08-23T22:07:33.341Z,20.70
2018-08-23T22:10:03.073Z,20.70
2018-08-23T22:12:31.912Z,20.70
2018-08-23T22:15:00.895Z,20.70
2018-08-23T22:17:29.732Z,20.60
2018-08-23T22:19:58.559Z,20.60
2018-08-23T22:22:27.378Z,20.50
2018-08-23T22:24:56.220Z,20.40
2018-08-23T22:27:25.022Z,20.40
2018-08-23T22:29:53.838Z,20.30
2018-08-23T22:32:22.695Z,20.30
2018-08-23T22:34:51.567Z,20.30
2018-08-23T22:37:20.496Z,20.20
2018-08-23T22:39:49.322Z,20.10
2018-08-23T22:42:18.143Z,20.10
2018-08-23T22:44:47.358Z,20.00
2018-08-23T22:47:16.132Z,20.00
2018-08-23T22:49:44.979Z,19.90
2018-08-23T22:52:14.529Z,19.90
2018-08-23T22:54:43.414Z,19.90
2018-08-23T22:57:12.224Z,19.90
2018-08-23T22:59:41.063Z,19.80
2018-08-23T23:02:09.887Z,19.80
2018-08-23T23:04:38.743Z,19.80
2018-08-23T23:07:08.667Z,19.80
2018-08-23T23:09:37.564Z,19.80
2018-08-23T23:12:06.734Z,19.60
2018-08-23T23:14:35.584Z,19.60
2018-08-23T23:17:06.917Z,19.60
2018-08-23T23:19:35.904Z,19.50
2018-08-23T23:22:04.776Z,19.60
2018-08-23T23:24:39.019Z,19.50
2018-08-23T23:27:07.899Z,19.50
2018-08-23T23:29:37.372Z,19.50
2018-08-23T23:32:06.289Z,19.40
2018-08-23T23:34:35.151Z,19.40
2018-08-23T23:37:03.963Z,19.30
2018-08-23T23:39:32.778Z,19.30
2018-08-23T23:42:01.593Z,19.20
2018-08-23T23:44:30.467Z,19.20
2018-08-23T23:46:59.353Z,19.10
2018-08-23T23:49:28.239Z,19.10
2018-08-23T23:51:57.100Z,19.10
2018-08-23T23:54:25.969Z,19.10
2018-08-23T23:56:54.956Z,19.10
2018-08-23T23:59:23.761Z,19.10
